createdAt,value
2024-02-02T00:03:46.432Z,3.30
2024-02-02T00:08:47.897Z,3.45
2024-02-02T00:13:49.414Z,2.90
2024-02-02T00:18:51.094Z,3.72
2024-02-02T00:23:52.700Z,3.33
2024-02-02T00:28:54.127Z,3.45
2024-02-02T00:33:55.783Z,3.85
2024-02-02T00:38:57.350Z,3.75
2024-02-02T00:43:58.855Z,3.03
2024-02-02T00:49:00.358Z,4.18
2024-02-02T00:54:01.914Z,3.38
2024-02-02T00:59:03.388Z,3.17
2024-02-02T01:04:04.905Z,3.83
2024-02-02T01:09:06.528Z,3.40
2024-02-02T01:14:08.016Z,2.92
2024-02-02T01:19:09.500Z,3.28
2024-02-02T01:24:11.117Z,3.75
2024-02-02T01:29:12.574Z,3.30
2024-02-02T01:34:14.066Z,2.88
2024-02-02T01:39:15.635Z,3.58
2024-02-02T01:44:17.120Z,3.72
2024-02-02T01:49:18.690Z,3.00
2024-02-02T01:54:20.213Z,3.25
2024-02-02T01:59:21.700Z,3.15
2024-02-02T02:04:24.115Z,3.10
2024-02-02T02:09:25.830Z,3.53
2024-02-02T02:14:27.349Z,3.20
2024-02-02T02:19:28.884Z,2.90
2024-02-02T02:24:30.397Z,3.00
2024-02-02T02:29:32.005Z,3.03
2024-02-02T02:34:33.703Z,2.92
2024-02-02T02:39:35.323Z,3.05
2024-02-02T02:44:36.774Z,2.72
2024-02-02T02:49:38.353Z,3.25
2024-02-02T02:54:39.859Z,3.25
2024-02-02T02:59:41.246Z,3.00
2024-02-02T03:04:42.687Z,2.78
2024-02-02T03:09:44.316Z,3.08
2024-02-02T03:14:45.733Z,2.95
2024-02-02T03:19:47.209Z,2.78
2024-02-02T03:24:48.737Z,2.75
2024-02-02T03:29:50.264Z,2.88
2024-02-02T03:34:51.700Z,3.17
2024-02-02T03:39:53.153Z,2.90
2024-02-02T03:44:54.633Z,2.90
2024-02-02T03:49:56.153Z,2.70
2024-02-02T03:54:57.571Z,2.65
2024-02-02T03:59:59.040Z,3.20
2024-02-02T04:05:00.475Z,2.60
2024-02-02T04:10:02.089Z,2.95
2024-02-02T04:15:04.902Z,3.10
2024-02-02T04:20:06.979Z,2.45
2024-02-02T04:25:08.516Z,3.08
2024-02-02T04:30:10.585Z,2.72
2024-02-02T04:35:12.027Z,2.65
2024-02-02T04:40:13.504Z,2.92
2024-02-02T04:45:14.908Z,2.47
2024-02-02T04:50:16.710Z,2.60
2024-02-02T09:51:27.880Z,2.78
2024-02-02T10:01:37.429Z,3.05
2024-02-02T10:25:13.869Z,2.28
2024-02-02T10:35:48.146Z,2.20
2024-02-02T10:46:02.891Z,2.85
2024-02-02T10:56:11.638Z,2.78
2024-02-02T11:06:30.097Z,2.43
2024-02-02T11:27:06.209Z,1.67
2024-02-02T11:37:16.319Z,2.40
2024-02-02T11:47:18.845Z,1.85
2024-02-02T11:57:21.967Z,2.40
2024-02-02T12:07:29.728Z,2.30
2024-02-02T12:17:31.688Z,2.30
2024-02-02T12:27:33.261Z,2.33
2024-02-02T12:37:43.944Z,2.58
2024-02-02T12:47:45.618Z,2.33
2024-02-02T12:57:47.157Z,2.15
2024-02-02T13:07:50.335Z,2.00
2024-02-02T13:18:01.322Z,2.05
2024-02-02T13:28:03.412Z,2.00
2024-02-02T13:38:05.005Z,1.80
2024-02-02T13:48:06.889Z,1.90
2024-02-02T13:58:08.382Z,2.05
2024-02-02T14:08:10.330Z,1.60
2024-02-02T14:18:12.766Z,1.65
2024-02-02T14:28:19.122Z,1.70
2024-02-02T14:38:20.647Z,1.60
2024-02-02T14:48:22.373Z,1.50
2024-02-02T14:58:24.908Z,1.50
2024-02-02T15:08:26.354Z,1.50
2024-02-02T15:18:27.846Z,1.17
2024-02-02T15:28:29.316Z,1.35
2024-02-02T15:38:30.751Z,1.35
2024-02-02T15:48:35.757Z,1.10
2024-02-02T15:58:37.372Z,1.30
2024-02-02T16:08:39.172Z,1.27
2024-02-02T16:18:40.748Z,1.15
2024-02-02T16:28:42.287Z,1.30
2024-02-02T16:38:45.790Z,1.23
2024-02-02T16:48:47.478Z,1.30
2024-02-02T16:58:48.956Z,1.40
2024-02-02T17:08:50.716Z,1.67
2024-02-02T17:18:52.210Z,1.58
2024-02-02T17:29:00.140Z,1.35
2024-02-02T17:39:05.376Z,1.60
2024-02-02T17:49:06.928Z,1.30
2024-02-02T17:59:08.538Z,1.50
2024-02-02T18:09:09.974Z,1.30
2024-02-02T18:19:12.041Z,1.25
2024-02-02T18:29:13.632Z,1.23
2024-02-02T18:39:15.543Z,1.40
2024-02-02T18:49:17.361Z,0.95
2024-02-02T18:59:18.816Z,1.13
2024-02-02T19:09:22.790Z,1.20
2024-02-02T19:19:24.344Z,1.40
2024-02-02T19:29:25.928Z,1.10
2024-02-02T19:39:27.469Z,1.50
2024-02-02T19:49:29.059Z,1.40
2024-02-02T19:59:30.670Z,1.17
2024-02-02T20:09:32.116Z,1.40
2024-02-02T20:19:33.626Z,1.40
2024-02-02T20:29:38.373Z,1.40
2024-02-02T20:39:40.185Z,1.20
2024-02-02T20:49:41.633Z,1.13
2024-02-02T20:59:43.131Z,1.60
2024-02-02T21:09:44.604Z,1.30
2024-02-02T21:19:46.212Z,1.73
2024-02-02T21:29:47.818Z,1.30
2024-02-02T21:39:49.348Z,1.60
2024-02-02T21:49:50.897Z,1.40
2024-02-02T21:59:52.464Z,1.40
2024-02-02T22:09:53.985Z,1.33
2024-02-02T22:19:55.574Z,1.33
2024-02-02T22:29:57.124Z,1.20
2024-02-02T22:39:58.728Z,1.17
2024-02-02T22:50:00.676Z,1.20
2024-02-02T23:00:06.091Z,1.48
2024-02-02T23:10:08.676Z,1.20
2024-02-02T23:20:10.559Z,1.27
2024-02-02T23:30:12.487Z,1.20
2024-02-02T23:40:14.007Z,1.70
2024-02-02T23:50:15.477Z,1.00
